Track Куранова Милана

Time Latitude Longitude Accuracy (66% radius in meters) Altitude (meters) Speed (km/hour) Bearing (degrees) Battery (%) GPS flag
06:58:46 54.461491 53.537117 0 0 0 0 1 delete
06:58:11 54.461519 53.537119 0 0 0 0 1 delete
06:57:58 54.461482 53.537090 0 0 0 0 1 delete
06:57:52 54.461504 53.537139 0 0 0 0 1 delete
06:57:43 54.461476 53.537161 0 0 0 0 1 delete
06:57:31 54.461454 53.537121 0 0 0 0 1 delete
06:57:17 54.461481 53.537136 0 0 0 0 1 delete
06:56:42 54.461475 53.537090 0 0 0 0 1 delete
06:56:33 54.461486 53.537046 0 0 0 0 1 delete
06:56:29 54.461483 53.536997 0 0 0 0 1 delete
06:56:24 54.461478 53.536942 0 0 0 0 1 delete
06:56:19 54.461482 53.536882 0 0 0 0 1 delete
06:56:14 54.461510 53.536854 0 0 0 0 1 delete
06:56:07 54.461535 53.536835 0 0 0 0 1 delete
06:56:03 54.461565 53.536801 0 0 0 0 1 delete
06:55:59 54.461567 53.536743 0 0 0 0 1 delete
06:55:56 54.461536 53.536726 0 0 0 0 1 delete
06:55:54 54.461509 53.536713 0 0 0 0 1 delete
06:55:52 54.461482 53.536700 0 0 0 0 1 delete
06:55:49 54.461442 53.536692 0 0 0 0 1 delete
06:55:46 54.461411 53.536707 0 0 0 0 1 delete
06:55:43 54.461383 53.536738 0 0 0 0 1 delete
06:55:41 54.461360 53.536763 0 0 0 0 1 delete
06:55:38 54.461325 53.536796 0 0 0 0 1 delete
06:55:36 54.461299 53.536812 0 0 0 0 1 delete
06:55:33 54.461266 53.536831 0 0 0 0 1 delete
06:55:30 54.461234 53.536863 0 0 0 0 1 delete
06:55:27 54.461211 53.536903 0 0 0 0 1 delete
06:55:24 54.461180 53.536933 0 0 0 0 1 delete
06:55:22 54.461151 53.536937 0 0 0 0 1 delete
06:55:19 54.461111 53.536939 0 0 0 0 1 delete
06:55:16 54.461075 53.536953 0 0 0 0 1 delete
06:55:13 54.461041 53.536969 0 0 0 0 1 delete
06:55:11 54.461013 53.536979 0 0 0 0 1 delete
06:55:09 54.460987 53.536993 0 0 0 0 1 delete
06:55:06 54.460945 53.537018 0 0 0 0 1 delete
06:55:03 54.460909 53.537026 0 0 0 0 1 delete
06:55:00 54.460878 53.537002 0 0 0 0 1 delete
06:54:57 54.460849 53.536998 0 0 0 0 1 delete
06:54:55 54.460821 53.537023 0 0 0 0 1 delete
06:54:53 54.460782 53.537031 0 0 0 0 1 delete
06:54:51 54.460748 53.537027 0 0 0 0 1 delete
06:54:49 54.460724 53.537057 0 0 0 0 1 delete
06:54:46 54.460701 53.537094 0 0 0 0 1 delete
06:54:43 54.460675 53.537121 0 0 0 0 1 delete
06:54:40 54.460661 53.537171 0 0 0 0 1 delete
06:54:08 54.460707 53.537260 0 0 0 0 1 delete
06:54:03 54.460724 53.537305 0 0 0 0 1 delete
06:54:01 54.460707 53.537359 0 0 0 0 1 delete
06:54:00 54.460690 53.537405 0 0 0 0 1 delete